Griffithtown, Arkansas
Current Conditions -  °F | °C
As of 12:56 PM on Thursday 23 Oct 2014 (Local Time) from KADF Reporting Station
Clear Clear  
Wind Chill: 17°   Ceiling: Unl
Heat Index: 17°   Visibility: 10mi
Dew Point: 10°   Wind: 0mph
Humidity: 63%   Direction: NA
Pressure: 30.19"   Gusts: NA
Location:  34.0941°N, 93.0475°W
Report Text: KADF 231756Z AUTO 00000KT 10SM CLR 17/10 A3019 RMK AO2 58006 T01720100 10172 20105 SLP238
Loading
Personal Weather Stations






























Interactive Weather Map
Tropical Storm Tracking
New forecast layout! Learn more

10-Day Weather Forecast

Advertisements
Track Severe Weather on mobile